createdAt,value
2022-12-07T00:00:47.315Z,1.30
2022-12-07T00:03:49.144Z,1.25
2022-12-07T00:06:53.832Z,1.27
2022-12-07T00:09:55.204Z,1.24
2022-12-07T00:12:56.620Z,1.20
2022-12-07T00:16:01.023Z,1.17
2022-12-07T00:19:02.537Z,1.18
2022-12-07T00:22:03.887Z,1.29
2022-12-07T00:25:05.496Z,1.33
2022-12-07T00:28:07.902Z,1.24
2022-12-07T00:31:10.183Z,1.26
2022-12-07T00:34:15.543Z,1.20
2022-12-07T00:37:16.940Z,1.15
2022-12-07T00:40:18.301Z,1.12
2022-12-07T00:43:19.679Z,1.12
2022-12-07T00:46:21.215Z,1.15
2022-12-07T00:49:22.678Z,1.16
2022-12-07T00:52:24.066Z,1.15
2022-12-07T00:55:25.431Z,1.15
2022-12-07T00:58:26.811Z,1.15
2022-12-07T01:01:29.033Z,1.14
2022-12-07T01:04:30.728Z,1.16
2022-12-07T01:07:32.136Z,1.15
2022-12-07T01:10:33.623Z,1.21
2022-12-07T01:13:35.274Z,1.17
2022-12-07T01:16:36.729Z,1.12
2022-12-07T01:19:38.095Z,1.07
2022-12-07T01:22:42.661Z,1.11
2022-12-07T01:25:44.024Z,1.07
2022-12-07T01:28:45.496Z,1.07
2022-12-07T01:31:48.599Z,1.05
2022-12-07T01:34:50.178Z,1.09
2022-12-07T01:37:51.638Z,1.08
2022-12-07T01:40:56.670Z,1.10
2022-12-07T01:44:17.793Z,1.09
2022-12-07T01:47:19.186Z,1.02
2022-12-07T01:50:21.373Z,1.08
2022-12-07T01:53:23.106Z,1.10
2022-12-07T01:56:25.621Z,1.12
2022-12-07T01:59:27.201Z,1.12
2022-12-07T02:02:32.989Z,1.12
2022-12-07T02:05:34.709Z,1.14
2022-12-07T02:08:36.118Z,1.15
2022-12-07T02:11:37.503Z,1.14
2022-12-07T02:14:38.877Z,1.13
2022-12-07T02:17:49.349Z,1.14
2022-12-07T02:20:56.916Z,1.15
2022-12-07T02:24:17.169Z,1.16
2022-12-07T02:27:23.821Z,1.18
2022-12-07T02:30:25.200Z,1.18
2022-12-07T02:33:30.625Z,1.15
2022-12-07T02:36:33.311Z,1.16
2022-12-07T02:39:45.054Z,1.09
2022-12-07T02:42:48.204Z,1.09
2022-12-07T02:45:49.670Z,1.09
2022-12-07T02:48:51.141Z,1.08
2022-12-07T02:51:52.955Z,1.08
2022-12-07T02:54:54.391Z,1.08
2022-12-07T02:58:19.137Z,1.09
2022-12-07T03:01:25.638Z,1.09
2022-12-07T03:04:36.404Z,1.13
2022-12-07T03:08:01.153Z,1.13
2022-12-07T03:11:04.334Z,1.12
2022-12-07T03:14:14.895Z,1.10
2022-12-07T03:17:20.634Z,1.11
2022-12-07T03:20:22.460Z,1.13
2022-12-07T03:23:23.865Z,1.11
2022-12-07T03:26:25.871Z,1.13
2022-12-07T03:29:28.897Z,1.15
2022-12-07T03:32:30.219Z,1.14
2022-12-07T03:35:33.050Z,1.13
2022-12-07T03:38:37.070Z,1.13
2022-12-07T03:41:42.212Z,1.08
2022-12-07T03:44:46.564Z,1.03
2022-12-07T03:47:49.061Z,1.02
2022-12-07T03:50:57.708Z,1.03
2022-12-07T03:54:10.653Z,1.04
2022-12-07T03:57:12.017Z,1.05
2022-12-07T04:00:13.730Z,1.07
2022-12-07T04:03:15.138Z,1.03
2022-12-07T04:06:16.598Z,0.99
2022-12-07T04:09:18.013Z,1.07
2022-12-07T04:12:19.485Z,0.96
2022-12-07T04:15:20.867Z,0.94
2022-12-07T04:18:22.236Z,0.94
2022-12-07T04:21:23.705Z,0.93
2022-12-07T04:24:25.092Z,0.91
2022-12-07T04:27:26.738Z,0.89
2022-12-07T04:30:28.082Z,0.86
2022-12-07T04:33:29.447Z,0.85
2022-12-07T04:36:30.838Z,0.81
2022-12-07T04:39:32.427Z,0.77
2022-12-07T04:42:33.814Z,0.74
2022-12-07T04:45:35.166Z,0.74
2022-12-07T04:48:36.555Z,0.77
2022-12-07T04:51:37.929Z,0.75
2022-12-07T04:54:39.269Z,0.74
2022-12-07T04:57:40.678Z,0.74
2022-12-07T05:00:42.077Z,0.75
2022-12-07T05:03:43.582Z,0.70
2022-12-07T05:06:44.934Z,0.61
2022-12-07T05:09:46.258Z,0.55
2022-12-07T05:12:48.183Z,0.45
2022-12-07T05:15:49.585Z,0.34
2022-12-07T05:18:51.050Z,0.30
2022-12-07T05:21:52.446Z,0.32
2022-12-07T05:24:53.808Z,0.37
2022-12-07T05:27:55.866Z,0.41
2022-12-07T05:30:59.960Z,0.42
2022-12-07T05:34:01.548Z,0.46
2022-12-07T05:37:03.074Z,0.34
2022-12-07T05:40:05.374Z,0.34
2022-12-07T05:43:07.009Z,0.34
2022-12-07T05:46:08.721Z,0.31
2022-12-07T05:49:10.201Z,0.31
2022-12-07T05:52:11.661Z,0.29
2022-12-07T05:55:12.994Z,0.32
2022-12-07T05:58:33.305Z,0.35
2022-12-07T06:01:34.714Z,0.35
2022-12-07T06:04:37.141Z,0.30
2022-12-07T06:07:38.634Z,0.24
2022-12-07T06:10:40.062Z,0.27
2022-12-07T06:13:47.048Z,0.22
2022-12-07T06:16:48.925Z,0.24
2022-12-07T06:19:50.394Z,0.25
2022-12-07T06:22:51.817Z,0.21
2022-12-07T06:25:53.205Z,0.19
2022-12-07T06:28:54.624Z,0.18
2022-12-07T06:31:56.010Z,0.11
2022-12-07T06:34:57.389Z,0.07
2022-12-07T06:37:58.919Z,-0.02
2022-12-07T06:41:00.354Z,-0.09
2022-12-07T06:44:01.759Z,-0.13
2022-12-07T06:47:32.003Z,-0.16
2022-12-07T06:50:24.661Z,-0.13
2022-12-07T06:53:26.076Z,-0.18
2022-12-07T06:56:27.496Z,-0.27
2022-12-07T06:59:28.852Z,-0.30
2022-12-07T07:02:30.342Z,-0.35
2022-12-07T07:05:31.724Z,-0.32
2022-12-07T07:08:33.172Z,-0.30
2022-12-07T07:11:34.808Z,-0.26
2022-12-07T07:14:36.790Z,-0.30
2022-12-07T07:17:38.307Z,-0.32
2022-12-07T07:20:39.672Z,-0.40
2022-12-07T07:23:41.086Z,-0.28
2022-12-07T07:26:42.478Z,-0.18
2022-12-07T07:29:43.830Z,-0.14
2022-12-07T07:32:45.255Z,-0.26
2022-12-07T07:35:46.621Z,-0.21
2022-12-07T07:38:48.006Z,-0.20
2022-12-07T07:41:49.401Z,-0.22
2022-12-07T07:44:50.787Z,-0.23
2022-12-07T07:47:52.149Z,-0.24
2022-12-07T07:50:53.556Z,-0.24
2022-12-07T07:53:54.972Z,-0.19
2022-12-07T07:56:56.347Z,-0.13
2022-12-07T07:59:57.721Z,-0.10
2022-12-07T08:03:00.208Z,-0.01
2022-12-07T08:06:02.737Z,-0.07
2022-12-07T08:09:06.078Z,0.10
2022-12-07T08:12:07.518Z,0.14
2022-12-07T08:15:09.097Z,0.17
2022-12-07T08:18:10.496Z,0.11
2022-12-07T08:21:12.949Z,0.19
2022-12-07T08:24:14.528Z,0.18
2022-12-07T08:27:15.907Z,0.15
2022-12-07T08:30:17.382Z,0.24
2022-12-07T08:33:18.725Z,0.31
2022-12-07T08:36:20.189Z,0.33
2022-12-07T08:39:36.957Z,0.39
2022-12-07T08:42:41.391Z,0.44
2022-12-07T08:45:42.906Z,0.42
2022-12-07T08:48:48.080Z,0.36
2022-12-07T08:51:49.520Z,0.54
2022-12-07T08:54:50.924Z,0.48
2022-12-07T08:57:52.344Z,0.66
2022-12-07T09:00:53.767Z,0.84
2022-12-07T09:03:55.166Z,0.94
2022-12-07T09:06:56.661Z,1.02
2022-12-07T09:09:58.147Z,1.08
2022-12-07T09:13:02.580Z,1.10
2022-12-07T09:16:04.023Z,1.13
2022-12-07T09:19:05.414Z,1.13
2022-12-07T09:22:06.931Z,1.19
2022-12-07T09:25:08.652Z,1.21
2022-12-07T09:28:10.053Z,1.28
2022-12-07T09:31:27.099Z,1.22
2022-12-07T09:34:31.142Z,1.21
2022-12-07T09:37:36.095Z,1.29
2022-12-07T09:40:37.508Z,1.24
2022-12-07T09:43:38.952Z,1.43
2022-12-07T09:46:41.124Z,1.49
2022-12-07T09:49:42.542Z,1.49
2022-12-07T09:52:44.200Z,1.54
2022-12-07T09:55:45.641Z,1.69
2022-12-07T09:58:47.039Z,1.78
2022-12-07T10:01:49.045Z,1.71
2022-12-07T10:04:50.462Z,1.79
2022-12-07T10:07:52.014Z,1.91
2022-12-07T10:10:54.564Z,1.94
2022-12-07T10:13:56.248Z,1.90
2022-12-07T10:16:57.664Z,1.93
2022-12-07T10:20:17.959Z,1.89
2022-12-07T10:23:19.343Z,1.90
2022-12-07T10:26:26.989Z,1.99
2022-12-07T10:29:32.333Z,2.08
2022-12-07T10:32:34.985Z,2.08
2022-12-07T10:35:36.479Z,2.10
2022-12-07T10:38:37.835Z,2.14
2022-12-07T10:41:58.057Z,2.23
2022-12-07T10:45:16.163Z,2.38
2022-12-07T10:48:17.533Z,2.31
2022-12-07T10:51:39.716Z,2.29
2022-12-07T10:55:07.650Z,2.26
2022-12-07T10:58:28.135Z,2.35
2022-12-07T11:01:48.442Z,2.44
2022-12-07T11:04:58.038Z,2.57
2022-12-07T11:08:05.641Z,2.50
2022-12-07T11:11:25.558Z,2.22
2022-12-07T11:14:32.540Z,1.66
2022-12-07T11:17:36.473Z,1.57
2022-12-07T11:20:40.810Z,1.36
2022-12-07T11:24:00.957Z,1.23
2022-12-07T11:27:02.569Z,1.01
2022-12-07T11:30:04.272Z,1.00
2022-12-07T11:33:24.583Z,0.96
2022-12-07T11:36:31.578Z,0.87
2022-12-07T11:39:36.754Z,0.99
2022-12-07T11:42:39.525Z,1.02
2022-12-07T11:45:43.987Z,0.90
2022-12-07T11:48:51.000Z,0.65
2022-12-07T11:51:53.038Z,0.75
2022-12-07T11:54:54.512Z,0.86
2022-12-07T11:57:59.605Z,1.05
2022-12-07T12:01:14.430Z,0.95
2022-12-07T12:04:31.182Z,1.15
2022-12-07T12:10:59.754Z,1.47
2022-12-07T12:17:31.496Z,1.34
2022-12-07T12:20:52.049Z,1.58
2022-12-07T12:24:00.586Z,1.51
2022-12-07T12:27:06.438Z,1.50
2022-12-07T12:30:08.654Z,1.64
2022-12-07T12:33:19.454Z,1.65
2022-12-07T12:36:50.466Z,1.72
2022-12-07T12:40:12.145Z,1.71
2022-12-07T12:43:32.297Z,1.42
2022-12-07T12:46:34.683Z,1.38
2022-12-07T12:49:37.139Z,1.29
2022-12-07T12:52:38.492Z,1.30
2022-12-07T12:55:42.919Z,1.36
2022-12-07T12:58:46.239Z,1.47
2022-12-07T13:01:48.276Z,1.38
2022-12-07T13:04:49.776Z,1.43
2022-12-07T13:07:52.855Z,1.42
2022-12-07T13:10:54.382Z,1.66
2022-12-07T13:14:15.717Z,1.62
2022-12-07T13:17:32.488Z,1.87
2022-12-07T13:20:43.063Z,2.04
2022-12-07T13:23:44.621Z,2.16
2022-12-07T13:26:46.051Z,2.08
2022-12-07T13:29:47.423Z,2.00
2022-12-07T13:32:55.261Z,2.05
2022-12-07T13:35:57.633Z,2.10
2022-12-07T13:38:59.566Z,1.98
2022-12-07T13:42:02.910Z,1.94
2022-12-07T13:45:23.746Z,1.88
2022-12-07T13:48:44.183Z,1.86
2022-12-07T13:51:45.571Z,1.94
2022-12-07T13:54:47.937Z,2.02
2022-12-07T13:57:50.586Z,1.98
2022-12-07T14:00:52.122Z,2.02
2022-12-07T14:03:53.944Z,2.00
2022-12-07T14:06:55.382Z,1.96
2022-12-07T14:09:56.762Z,1.99
2022-12-07T14:12:58.264Z,1.93
2022-12-07T14:15:59.724Z,1.89
2022-12-07T14:19:02.581Z,1.93
2022-12-07T14:22:09.705Z,1.87
2022-12-07T14:25:14.219Z,1.83
2022-12-07T14:28:29.260Z,1.92
2022-12-07T14:31:31.170Z,1.87
2022-12-07T14:34:32.605Z,1.81
2022-12-07T14:37:34.199Z,1.79
2022-12-07T14:40:35.657Z,1.73
2022-12-07T14:43:42.067Z,1.81
2022-12-07T14:50:13.353Z,1.74
2022-12-07T14:56:24.581Z,1.65
2022-12-07T14:59:25.959Z,1.64
2022-12-07T15:02:27.377Z,1.64
2022-12-07T15:05:28.870Z,1.67
2022-12-07T15:08:30.406Z,1.71
2022-12-07T15:11:31.970Z,1.67
2022-12-07T15:14:33.417Z,1.69
2022-12-07T15:17:34.890Z,1.63
2022-12-07T15:20:36.356Z,1.65
2022-12-07T15:23:37.794Z,1.62
2022-12-07T15:26:39.284Z,1.63
2022-12-07T15:29:40.647Z,1.65
2022-12-07T15:32:42.164Z,1.63
2022-12-07T15:35:43.933Z,1.63
2022-12-07T15:39:12.577Z,1.64
2022-12-07T15:42:06.855Z,1.65
2022-12-07T15:45:08.680Z,1.69
2022-12-07T15:51:31.524Z,1.63
2022-12-07T15:54:33.293Z,1.66
2022-12-07T15:57:35.647Z,1.65
2022-12-07T16:00:37.036Z,1.62
2022-12-07T16:03:38.538Z,1.57
2022-12-07T16:06:40.119Z,1.60
2022-12-07T16:09:41.510Z,1.54
2022-12-07T16:12:43.244Z,1.54
2022-12-07T16:15:44.684Z,1.55
2022-12-07T16:18:46.576Z,1.53
2022-12-07T16:21:48.051Z,1.44
2022-12-07T16:24:49.484Z,1.47
2022-12-07T16:27:51.697Z,1.48
2022-12-07T16:31:00.628Z,1.48
2022-12-07T16:34:02.094Z,1.47
2022-12-07T16:37:04.924Z,1.43
2022-12-07T16:40:07.369Z,1.39
2022-12-07T16:43:09.135Z,1.32
2022-12-07T16:46:10.895Z,1.34
2022-12-07T16:49:13.052Z,1.33
2022-12-07T16:52:20.266Z,1.31
2022-12-07T16:55:22.243Z,1.31
2022-12-07T16:58:23.659Z,1.31
2022-12-07T17:01:25.156Z,1.22
2022-12-07T17:04:26.748Z,1.20
2022-12-07T17:07:28.222Z,1.31
2022-12-07T17:10:29.586Z,1.34
2022-12-07T17:13:54.169Z,1.22
2022-12-07T17:16:55.595Z,1.22
2022-12-07T17:19:57.055Z,1.20
2022-12-07T17:22:58.472Z,1.20
2022-12-07T17:26:10.042Z,1.14
2022-12-07T17:29:12.127Z,1.15
2022-12-07T17:32:13.573Z,1.09
2022-12-07T17:35:15.249Z,1.10
2022-12-07T17:38:16.653Z,1.07
2022-12-07T17:41:37.471Z,1.08
2022-12-07T17:44:38.902Z,1.07
2022-12-07T17:47:40.386Z,1.12
2022-12-07T17:51:00.531Z,1.14
2022-12-07T17:54:01.956Z,1.18
2022-12-07T17:57:03.491Z,1.14
2022-12-07T18:00:05.869Z,1.13
2022-12-07T18:03:09.416Z,1.13
2022-12-07T18:06:10.897Z,1.08
2022-12-07T18:09:12.275Z,1.10
2022-12-07T18:12:13.824Z,1.09
2022-12-07T18:15:15.248Z,1.13
2022-12-07T18:18:16.642Z,1.12
2022-12-07T18:21:18.634Z,1.12
2022-12-07T18:24:20.166Z,1.04
2022-12-07T18:27:21.624Z,1.09
2022-12-07T18:30:37.036Z,1.09
2022-12-07T18:33:45.027Z,1.11
2022-12-07T18:36:47.365Z,1.03
2022-12-07T18:39:50.260Z,1.00
2022-12-07T18:42:51.667Z,0.99
2022-12-07T18:45:56.148Z,0.98
2022-12-07T18:48:57.924Z,1.02
2022-12-07T18:51:59.295Z,1.04
2022-12-07T18:55:03.111Z,1.08
2022-12-07T18:58:04.842Z,1.07
2022-12-07T19:01:06.291Z,1.10
2022-12-07T19:04:07.813Z,1.09
2022-12-07T19:07:09.189Z,1.07
2022-12-07T19:10:10.608Z,1.11
2022-12-07T19:13:12.044Z,1.03
2022-12-07T19:16:13.462Z,0.98
2022-12-07T19:19:14.912Z,1.03
2022-12-07T19:22:16.985Z,1.04
2022-12-07T19:25:18.380Z,1.04
2022-12-07T19:28:19.775Z,1.00
2022-12-07T19:31:21.207Z,1.11
2022-12-07T19:34:22.625Z,1.05
2022-12-07T19:37:24.053Z,1.03
2022-12-07T19:40:25.449Z,0.93
2022-12-07T19:43:26.833Z,0.56
2022-12-07T19:46:28.364Z,0.62
2022-12-07T19:49:30.206Z,0.64
2022-12-07T19:52:36.487Z,0.62
2022-12-07T19:55:42.015Z,0.50
2022-12-07T19:58:43.464Z,0.42
2022-12-07T20:01:44.938Z,0.41
2022-12-07T20:04:46.371Z,0.40
2022-12-07T20:07:47.815Z,0.39
2022-12-07T20:10:50.873Z,0.35
2022-12-07T20:13:52.399Z,0.34
2022-12-07T20:16:53.925Z,0.31
2022-12-07T20:19:55.460Z,0.30
2022-12-07T20:22:56.928Z,0.32
2022-12-07T20:26:01.053Z,0.33
2022-12-07T20:29:10.027Z,0.43
2022-12-07T20:32:13.621Z,0.43
2022-12-07T20:35:15.028Z,0.40
2022-12-07T20:38:16.445Z,0.36
2022-12-07T20:41:36.584Z,0.33
2022-12-07T20:44:37.992Z,0.38
2022-12-07T20:47:39.437Z,0.40
2022-12-07T20:50:42.537Z,0.37
2022-12-07T20:53:44.091Z,0.36
2022-12-07T20:56:45.602Z,0.36
2022-12-07T20:59:47.004Z,0.38
2022-12-07T21:02:48.541Z,0.38
2022-12-07T21:05:50.993Z,0.35
2022-12-07T21:08:55.056Z,0.30
2022-12-07T21:11:56.423Z,0.27
2022-12-07T21:14:57.854Z,0.28
2022-12-07T21:18:02.811Z,0.25
2022-12-07T21:21:07.957Z,0.21
2022-12-07T21:24:09.839Z,0.24
2022-12-07T21:27:11.326Z,0.22
2022-12-07T21:30:12.717Z,0.22
2022-12-07T21:33:14.094Z,0.22
2022-12-07T21:36:16.844Z,0.23
2022-12-07T21:39:18.207Z,0.26
2022-12-07T21:42:19.615Z,0.29
2022-12-07T21:45:21.031Z,0.22
2022-12-07T21:48:22.470Z,0.14
2022-12-07T21:51:24.629Z,0.18
2022-12-07T21:54:26.372Z,0.13
2022-12-07T21:57:27.824Z,0.06
2022-12-07T22:00:29.295Z,0.11
2022-12-07T22:03:30.703Z,0.15
2022-12-07T22:06:32.845Z,0.08
2022-12-07T22:09:34.306Z,0.02
2022-12-07T22:12:35.758Z,0.07
2022-12-07T22:15:37.162Z,0.12
2022-12-07T22:18:38.600Z,0.13
2022-12-07T22:21:40.078Z,0.13
2022-12-07T22:24:42.000Z,0.14
2022-12-07T22:27:43.398Z,0.12
2022-12-07T22:30:45.291Z,0.09
2022-12-07T22:33:46.822Z,0.05
2022-12-07T22:36:48.338Z,-0.05
2022-12-07T22:39:49.785Z,0.05
2022-12-07T22:42:51.287Z,0.09
2022-12-07T22:45:56.599Z,0.01
2022-12-07T22:48:58.053Z,0.07
2022-12-07T22:51:59.448Z,0.10
2022-12-07T22:55:00.979Z,0.07
2022-12-07T22:58:03.879Z,0.07
2022-12-07T23:01:08.921Z,0.00
2022-12-07T23:04:10.423Z,0.01
2022-12-07T23:07:12.466Z,0.03
2022-12-07T23:10:13.855Z,0.02
2022-12-07T23:13:35.682Z,-0.09
2022-12-07T23:16:37.195Z,-0.13
2022-12-07T23:19:38.666Z,-0.23
2022-12-07T23:22:40.046Z,-0.24
2022-12-07T23:25:41.427Z,-0.15
2022-12-07T23:28:42.877Z,-0.11
2022-12-07T23:31:44.328Z,-0.08
2022-12-07T23:34:45.802Z,-0.17
2022-12-07T23:37:47.244Z,-0.32
2022-12-07T23:40:48.647Z,-0.30
2022-12-07T23:43:50.093Z,-0.41
2022-12-07T23:46:51.735Z,-0.40
2022-12-07T23:49:53.215Z,-0.36
2022-12-07T23:52:54.812Z,-0.36
2022-12-07T23:55:56.367Z,-0.38
2022-12-07T23:58:57.784Z,-0.38
